Time;durP1;ratioP1;P1;durP2;ratioP2;P2;SDS_P1;SDS_P2;PMS_P1;PMS_P2;Temp;Humidity;BMP_temperature;BMP_pressure;BME280_temperature;BME280_humidity;BME280_pressure;Samples;Min_cycle;Max_cycle;Signal;HPM_P1;HPM_P2
2022/11/01 00:01:41;;;;;;;17.13;9.67;;;;;;;14.85;88.06;100084.19;5111901;28;20191;-62
2022/11/01 00:04:08;;;;;;;23.07;10.63;;;;;;;14.80;88.22;100076.50;5111825;27;20209;-66
2022/11/01 00:06:35;;;;;;;20.20;9.50;;;;;;;14.80;88.41;100073.91;5112041;28;20561;-66
2022/11/01 00:09:03;;;;;;;12.60;9.17;;;;;;;14.83;87.25;100072.94;5111889;28;20505;-66
2022/11/01 00:11:30;;;;;;;17.33;9.77;;;;;;;14.75;87.52;100067.16;5111822;28;20195;-63
2022/11/01 00:13:58;;;;;;;14.40;9.30;;;;;;;14.62;87.23;100058.06;5112135;28;20206;-62
2022/11/01 00:16:25;;;;;;;19.77;9.83;;;;;;;14.62;87.42;100076.34;5111458;28;20206;-62
2022/11/01 00:18:52;;;;;;;18.30;9.30;;;;;;;14.71;87.16;100070.78;5111518;28;20249;-61
2022/11/01 00:21:19;;;;;;;18.07;10.70;;;;;;;14.70;87.05;100072.53;5111445;28;20205;-61
2022/11/01 00:23:46;;;;;;;21.33;10.03;;;;;;;14.66;87.58;100067.50;5111410;28;20202;-61
2022/11/01 00:26:16;;;;;;;17.03;10.33;;;;;;;14.75;86.71;100068.00;5111524;28;20285;-66
2022/11/01 00:28:43;;;;;;;19.53;9.53;;;;;;;14.59;86.20;100052.94;5111275;28;20194;-65
2022/11/01 00:31:13;;;;;;;18.47;10.33;;;;;;;14.70;86.12;100072.53;5111215;28;20191;-66
2022/11/01 00:33:40;;;;;;;25.10;10.73;;;;;;;14.66;85.95;100080.56;5111242;28;20583;-66
2022/11/01 00:36:08;;;;;;;16.57;10.20;;;;;;;14.55;86.14;100080.09;5111188;28;20275;-67
2022/11/01 00:38:36;;;;;;;13.63;9.93;;;;;;;14.55;86.03;100073.13;5111600;28;20232;-66
2022/11/01 00:41:03;;;;;;;20.53;10.17;;;;;;;14.48;86.21;100071.63;5111308;28;20205;-61
2022/11/01 00:43:31;;;;;;;23.80;9.80;;;;;;;14.37;86.63;100071.97;5110725;28;20289;-67
2022/11/01 00:45:58;;;;;;;22.33;9.93;;;;;;;14.35;86.94;100076.38;5111193;28;20586;-68
2022/11/01 00:48:26;;;;;;;19.83;9.37;;;;;;;14.38;85.92;100068.44;5111120;28;20197;-68
2022/11/01 00:50:54;;;;;;;13.40;8.90;;;;;;;14.35;85.76;100073.78;5110921;28;20204;-66
2022/11/01 00:53:21;;;;;;;18.20;9.83;;;;;;;14.25;86.60;100079.38;5111241;28;20195;-60
2022/11/01 00:55:48;;;;;;;18.70;10.03;;;;;;;14.06;87.47;100058.28;5110603;28;20241;-62
2022/11/01 00:58:15;;;;;;;14.80;9.43;;;;;;;14.13;87.79;100078.03;5110534;28;20229;-61
2022/11/01 01:00:41;;;;;;;18.07;9.33;;;;;;;14.14;86.97;100072.75;5110689;28;20285;-63
2022/11/01 01:03:09;;;;;;;17.37;9.60;;;;;;;14.17;86.42;100072.66;5110634;27;20217;-61
2022/11/01 01:05:37;;;;;;;22.67;9.87;;;;;;;14.28;86.07;100074.91;5110354;28;20195;-67
2022/11/01 01:08:04;;;;;;;18.93;9.27;;;;;;;14.19;86.27;100070.00;5110751;28;20195;-67
2022/11/01 01:10:31;;;;;;;17.73;9.03;;;;;;;14.09;87.29;100071.22;5110528;28;20198;-68
2022/11/01 01:12:58;;;;;;;16.33;9.40;;;;;;;14.14;86.92;100069.31;5110558;28;20670;-68
2022/11/01 01:15:25;;;;;;;17.93;8.90;;;;;;;14.10;86.60;100062.50;5110446;28;20198;-67
2022/11/01 01:17:53;;;;;;;12.03;8.47;;;;;;;14.12;85.99;100069.34;5110320;28;20214;-68
2022/11/01 01:20:20;;;;;;;14.63;7.97;;;;;;;14.12;85.57;100068.50;5110400;28;20293;-68
2022/11/01 01:22:49;;;;;;;18.57;9.20;;;;;;;14.09;85.47;100068.63;5110331;28;20195;-62
2022/11/01 01:25:16;;;;;;;17.00;7.87;;;;;;;14.05;85.83;100070.47;5110334;28;20277;-62
2022/11/01 01:27:43;;;;;;;23.23;9.10;;;;;;;13.99;86.10;100068.09;5110540;28;20555;-62
2022/11/01 01:30:11;;;;;;;12.43;8.30;;;;;;;13.94;86.20;100063.91;5110184;28;20233;-61
2022/11/01 01:32:38;;;;;;;13.33;7.73;;;;;;;13.89;86.71;100066.66;5110350;28;20684;-64
2022/11/01 01:35:06;;;;;;;18.00;7.83;;;;;;;13.74;87.24;100057.63;5110267;28;20204;-61
2022/11/01 01:37:33;;;;;;;13.97;7.67;;;;;;;13.71;87.34;100057.69;5110065;28;20600;-62
2022/11/01 01:40:01;;;;;;;14.67;8.17;;;;;;;13.82;86.95;100060.81;5110046;28;20203;-62
2022/11/01 01:42:30;;;;;;;11.90;7.67;;;;;;;13.81;86.96;100064.31;5110105;28;20194;-62
2022/11/01 01:45:20;;;;;;;10.77;7.20;;;;;;;13.52;87.25;100029.66;5110072;28;20198;-63
2022/11/01 01:47:50;;;;;;;20.10;7.53;;;;;;;13.66;88.05;100062.22;5110139;28;20697;-61
2022/11/01 01:50:22;;;;;;;14.13;7.70;;;;;;;13.62;88.12;100057.16;5109848;28;20693;-62
2022/11/01 01:52:53;;;;;;;19.90;8.27;;;;;;;13.63;88.62;100071.91;5110311;28;20276;-62
2022/11/01 01:55:24;;;;;;;12.43;7.73;;;;;;;13.50;89.52;100066.22;5109870;28;20199;-65
2022/11/01 01:57:52;;;;;;;14.03;7.40;;;;;;;13.45;90.40;100065.50;5110009;28;20195;-68
2022/11/01 02:00:19;;;;;;;18.80;8.13;;;;;;;13.40;91.30;100065.69;5109770;28;20210;-68
2022/11/01 02:02:46;;;;;;;13.17;7.73;;;;;;;13.39;91.61;100074.41;5109646;28;20198;-67
2022/11/01 02:05:20;;;;;;;16.97;7.87;;;;;;;13.39;91.78;100071.78;5109906;28;20261;-67
2022/11/01 02:07:47;;;;;;;13.23;7.70;;;;;;;13.48;91.46;100075.84;5110044;28;20195;-62
2022/11/01 02:10:15;;;;;;;11.80;8.30;;;;;;;13.60;90.58;100083.28;5109848;28;20203;-62
2022/11/01 02:12:49;;;;;;;12.50;8.00;;;;;;;13.71;89.71;100081.19;5109975;28;20197;-61
2022/11/01 02:15:17;;;;;;;17.93;8.60;;;;;;;13.71;88.96;100081.19;5109633;28;20194;-61
2022/11/01 02:17:54;;;;;;;14.07;8.77;;;;;;;13.62;89.62;100080.63;5110626;28;20198;-63
2022/11/01 02:20:44;;;;;;;17.63;8.93;;;;;;;13.72;88.98;100085.50;5113789;28;20196;-62
2022/11/01 02:23:46;;;;;;;10.63;7.40;;;;;;;13.73;88.68;100087.22;5113916;28;20199;-67
2022/11/01 02:26:33;;;;;;;13.40;8.60;;;;;;;13.66;89.33;100090.91;5114182;28;20604;-63
2022/11/01 02:29:14;;;;;;;16.10;7.80;;;;;;;13.62;89.95;100094.53;5113675;28;20198;-61
2022/11/01 02:32:03;;;;;;;10.60;7.60;;;;;;;13.52;90.55;100087.91;5113809;28;20571;-61
2022/11/01 02:34:36;;;;;;;15.63;7.90;;;;;;;13.37;92.05;100097.06;5113711;28;20673;-61
2022/11/01 02:37:12;;;;;;;15.93;8.20;;;;;;;13.37;92.54;100099.66;5113642;28;20195;-62
2022/11/01 02:39:46;;;;;;;18.03;8.13;;;;;;;13.35;92.11;100082.34;5113384;28;20232;-63
2022/11/01 02:42:17;;;;;;;19.37;7.57;;;;;;;13.19;92.01;100048.09;5113438;28;20197;-66
2022/11/01 02:44:52;;;;;;;15.80;8.33;;;;;;;13.48;91.95;100094.09;5113375;28;20306;-66
2022/11/01 02:47:20;;;;;;;10.63;7.20;;;;;;;13.51;91.77;100104.44;5113194;27;20201;-67
2022/11/01 02:49:53;;;;;;;12.63;7.90;;;;;;;13.40;91.93;100076.09;5113446;27;20191;-67
2022/11/01 02:52:24;;;;;;;9.83;7.03;;;;;;;13.59;91.27;100106.81;5113221;28;20201;-66
2022/11/01 02:54:53;;;;;;;11.10;7.10;;;;;;;13.63;91.07;100101.47;5113085;28;20221;-61
2022/11/01 02:57:29;;;;;;;15.70;8.10;;;;;;;13.70;90.48;100104.72;5112505;28;20230;-60
2022/11/01 03:00:03;;;;;;;9.90;7.00;;;;;;;13.64;91.34;100105.78;5113488;28;20226;-60
2022/11/01 03:02:39;;;;;;;9.83;7.37;;;;;;;13.55;91.16;100098.22;5113076;28;20190;-61
2022/11/01 03:05:09;;;;;;;11.23;8.73;;;;;;;13.50;91.85;100100.13;5112997;27;20642;-60
2022/11/01 03:07:36;;;;;;;11.43;8.17;;;;;;;13.52;91.62;100106.16;5113012;28;20198;-61
2022/11/01 03:10:03;;;;;;;11.90;7.73;;;;;;;13.57;91.25;100106.84;5113017;28;20279;-65
2022/11/01 03:12:35;;;;;;;10.77;7.23;;;;;;;13.66;90.55;100109.16;5112901;27;20202;-68
2022/11/01 03:15:19;;;;;;;11.00;7.23;;;;;;;13.62;90.68;100101.50;5113006;28;20195;-68
2022/11/01 03:17:53;;;;;;;16.03;7.43;;;;;;;13.52;90.97;100098.34;5112779;28;20237;-62
2022/11/01 03:20:25;;;;;;;9.20;7.20;;;;;;;13.43;91.42;100109.06;5112843;27;20201;-61
2022/11/01 03:22:56;;;;;;;13.20;7.33;;;;;;;13.38;91.75;100096.16;5112818;28;20199;-61
2022/11/01 03:25:39;;;;;;;12.50;7.27;;;;;;;13.35;92.37;100100.59;5112803;28;20580;-58
2022/11/01 03:28:11;;;;;;;12.50;7.80;;;;;;;13.21;92.78;100092.34;5112139;28;20285;-58
2022/11/01 03:30:43;;;;;;;10.17;7.67;;;;;;;13.26;92.99;100109.56;5112730;28;20644;-58
2022/11/01 03:33:14;;;;;;;11.90;7.20;;;;;;;13.17;92.93;100103.78;5112444;28;20259;-59
2022/11/01 03:35:45;;;;;;;9.57;7.07;;;;;;;13.13;93.61;100109.94;5112480;28;20381;-58
2022/11/01 03:38:17;;;;;;;14.83;7.53;;;;;;;13.16;93.67;100112.50;5112415;28;20191;-58
2022/11/01 03:40:48;;;;;;;10.03;7.20;;;;;;;13.06;93.76;100119.69;5112143;28;20670;-59
2022/11/01 03:43:17;;;;;;;11.13;7.13;;;;;;;12.98;94.35;100121.69;5112485;28;20217;-66
2022/11/01 03:45:45;;;;;;;9.47;6.67;;;;;;;12.94;94.71;100120.06;5112225;28;20205;-66
2022/11/01 03:48:13;;;;;;;14.00;7.23;;;;;;;12.85;95.26;100121.19;5112284;28;20216;-67
2022/11/01 03:50:47;;;;;;;16.00;7.60;;;;;;;12.79;95.94;100117.88;5112136;27;20306;-67
2022/11/01 03:53:15;;;;;;;8.67;6.47;;;;;;;12.73;96.44;100121.53;5108600;28;20222;-66
2022/11/01 03:55:42;;;;;;;8.63;7.00;;;;;;;12.80;95.98;100123.03;5091011;28;20325;-67
2022/11/01 03:58:09;;;;;;;8.37;6.90;;;;;;;12.78;96.20;100122.22;5091858;28;20698;-66
2022/11/01 04:00:39;;;;;;;9.80;6.73;;;;;;;12.77;96.22;100120.50;5090022;28;20219;-59
2022/11/01 04:03:06;;;;;;;10.50;6.80;;;;;;;12.75;96.43;100118.88;5090266;28;20210;-59
2022/11/01 04:05:36;;;;;;;11.53;6.87;;;;;;;12.68;96.67;100119.03;5091120;28;20225;-59
2022/11/01 04:08:04;;;;;;;9.23;6.93;;;;;;;12.66;96.99;100117.34;5091515;28;20199;-60
2022/11/01 04:10:31;;;;;;;9.73;6.77;;;;;;;12.58;96.89;100112.38;5091399;28;20195;-61
2022/11/01 04:12:59;;;;;;;12.07;7.23;;;;;;;12.59;97.12;100118.44;5091391;28;20221;-58
2022/11/01 04:21:05;;;;;;;8.83;7.17;;;;;;;12.61;97.06;100120.09;5091439;28;20222;-66
2022/11/01 04:23:33;;;;;;;9.33;7.73;;;;;;;12.65;96.52;100118.25;5091081;28;20197;-68
2022/11/01 04:26:00;;;;;;;8.90;7.23;;;;;;;12.71;96.29;100112.88;5091116;28;20198;-66
2022/11/01 04:28:26;;;;;;;13.07;7.27;;;;;;;12.72;95.88;100123.25;5091126;28;20286;-58
2022/11/01 04:30:53;;;;;;;10.80;6.93;;;;;;;12.70;95.92;100119.84;5090886;28;20203;-66
2022/11/01 04:33:20;;;;;;;9.97;7.60;;;;;;;12.72;95.95;100114.59;5091365;28;20566;-59
2022/11/01 04:35:47;;;;;;;8.57;7.07;;;;;;;12.69;95.90;100119.88;5091034;28;20702;-58
2022/11/01 04:38:16;;;;;;;14.03;8.00;;;;;;;12.61;96.41;100122.72;5102751;28;20280;-66
2022/11/01 04:40:43;;;;;;;13.40;7.70;;;;;;;12.56;96.94;100126.31;5106628;28;20190;-66
2022/11/01 04:43:11;;;;;;;11.50;6.80;;;;;;;12.44;97.75;100126.66;5109578;28;20197;-58
2022/11/01 04:45:39;;;;;;;9.97;7.70;;;;;;;12.36;98.25;100132.06;5109698;28;20203;-66
2022/11/01 04:48:07;;;;;;;14.00;7.67;;;;;;;12.24;98.62;100114.16;5109584;28;20194;-66
2022/11/01 04:50:35;;;;;;;10.97;7.80;;;;;;;12.38;98.62;100134.63;5109929;28;20273;-58
2022/11/01 04:53:02;;;;;;;14.30;8.07;;;;;;;12.36;98.92;100127.72;5110057;28;20198;-59
2022/11/01 04:55:31;;;;;;;16.90;8.37;;;;;;;12.37;98.79;100133.78;5109649;28;20213;-61
2022/11/01 04:57:58;;;;;;;22.47;8.67;;;;;;;12.32;99.20;100131.28;5109775;28;20675;-66
2022/11/01 05:00:25;;;;;;;13.63;7.60;;;;;;;12.31;99.36;100124.38;5109660;28;20265;-59
2022/11/01 05:02:53;;;;;;;13.33;8.23;;;;;;;12.35;99.23;100138.16;5110127;28;20570;-59
2022/11/01 05:05:20;;;;;;;19.23;8.37;;;;;;;12.25;99.79;100108.91;5110770;28;20285;-66
2022/11/01 05:07:46;;;;;;;11.20;8.13;;;;;;;12.50;98.58;100135.16;5109311;28;20205;-65
2022/11/01 05:10:13;;;;;;;11.50;8.57;;;;;;;12.56;98.19;100135.00;5109623;28;20286;-59
2022/11/01 05:12:42;;;;;;;17.57;8.23;;;;;;;12.52;98.57;100148.16;5110764;28;20213;-64
2022/11/01 05:15:09;;;;;;;11.87;7.67;;;;;;;12.60;98.25;100149.66;5110814;28;20202;-63
2022/11/01 05:17:40;;;;;;;12.23;7.50;;;;;;;12.70;97.41;100148.50;5110679;28;20652;-62
2022/11/01 05:20:09;;;;;;;12.43;7.47;;;;;;;12.84;96.24;100147.25;5110628;28;20222;-62
2022/11/01 05:22:36;;;;;;;16.17;8.03;;;;;;;12.92;95.78;100159.19;5109292;28;20581;-62
2022/11/01 05:25:03;;;;;;;17.07;8.20;;;;;;;12.99;94.40;100145.06;5110543;28;20567;-64
2022/11/01 05:27:30;;;;;;;15.63;8.03;;;;;;;13.24;93.13;100160.03;5110487;28;20663;-62
2022/11/01 05:29:58;;;;;;;16.47;8.77;;;;;;;13.15;92.73;100155.94;5110410;28;20205;-67
2022/11/01 05:32:25;;;;;;;20.57;8.60;;;;;;;13.13;93.19;100155.09;5110432;28;20560;-62
2022/11/01 05:34:52;;;;;;;12.00;7.60;;;;;;;13.20;92.80;100159.28;5110346;28;20198;-63
2022/11/01 05:37:19;;;;;;;19.93;7.97;;;;;;;13.31;92.55;100153.75;5109843;28;20194;-63
2022/11/01 05:39:46;;;;;;;23.13;8.30;;;;;;;13.51;90.95;100150.53;5109781;28;20222;-62
2022/11/01 05:42:13;;;;;;;24.33;9.07;;;;;;;13.63;90.56;100163.22;5109967;28;20241;-62
2022/11/01 05:44:39;;;;;;;18.13;9.17;;;;;;;13.58;90.05;100158.13;5108465;28;20289;-62
2022/11/01 05:47:08;;;;;;;18.97;8.80;;;;;;;13.79;88.46;100152.22;5109047;28;20584;-62
2022/11/01 05:49:35;;;;;;;17.67;8.60;;;;;;;14.53;84.91;100169.81;5109149;28;20274;-62
2022/11/01 05:52:02;;;;;;;24.33;8.60;;;;;;;15.71;78.23;100176.78;5108104;28;20281;-63
2022/11/01 05:54:28;;;;;;;23.50;9.07;;;;;;;17.38;69.86;100180.13;5108696;28;20701;-66
2022/11/01 05:56:55;;;;;;;31.90;9.00;;;;;;;18.90;61.18;100186.72;5108609;28;20233;-66
2022/11/01 05:59:22;;;;;;;16.43;7.73;;;;;;;19.56;57.34;100192.81;5108724;28;20597;-66
2022/11/01 06:01:49;;;;;;;15.75;7.82;;;;;;;20.13;54.59;100195.75;5108491;28;20201;-66
2022/11/01 06:04:18;;;;;;;15.10;7.65;;;;;;;20.42;53.50;100202.03;5108625;28;20678;-66
2022/11/01 06:06:44;;;;;;;18.83;7.90;;;;;;;19.89;54.06;100197.97;5105493;28;20269;-67
2022/11/01 06:09:11;;;;;;;19.05;9.70;;;;;;;18.76;58.00;100190.91;5108415;28;20195;-66
2022/11/01 06:11:38;;;;;;;18.75;8.70;;;;;;;17.99;61.78;100192.16;5108523;28;20287;-67
2022/11/01 06:14:05;;;;;;;20.13;9.87;;;;;;;17.63;63.60;100200.00;5105632;28;20285;-66
2022/11/01 06:16:32;;;;;;;23.10;8.90;;;;;;;17.30;65.25;100199.75;5108456;28;20199;-66
2022/11/01 06:18:59;;;;;;;23.67;9.70;;;;;;;17.26;65.88;100191.22;5107987;28;20669;-66
2022/11/01 06:21:27;;;;;;;27.77;9.30;;;;;;;17.18;66.39;100200.31;5106164;28;20670;-66
2022/11/01 06:23:54;;;;;;;21.33;9.87;;;;;;;16.94;67.13;100197.00;5108657;28;20190;-63
2022/11/01 06:26:21;;;;;;;21.77;9.83;;;;;;;16.71;69.08;100200.63;5108344;28;20201;-66
2022/11/01 06:28:48;;;;;;;12.03;8.27;;;;;;;16.75;68.98;100202.22;5108186;28;20201;-66
2022/11/01 06:31:15;;;;;;;15.87;7.97;;;;;;;16.85;69.09;100200.03;5108309;28;20666;-67
2022/11/01 06:33:42;;;;;;;19.90;8.03;;;;;;;17.05;68.27;100205.25;5107893;28;20199;-66
2022/11/01 06:36:09;;;;;;;11.30;8.30;;;;;;;17.19;67.31;100202.88;5108093;28;20285;-66
2022/11/01 06:38:37;;;;;;;30.67;10.33;;;;;;;17.10;67.65;100194.56;5108025;28;20232;-66
2022/11/01 06:41:05;;;;;;;33.30;10.13;;;;;;;16.93;68.15;100179.59;5108182;28;20589;-66
2022/11/01 06:43:31;;;;;;;19.90;10.17;;;;;;;16.98;67.74;100195.97;5108091;28;20198;-66
2022/11/01 06:46:01;;;;;;;18.13;9.77;;;;;;;16.94;68.82;100194.38;5105466;28;20195;-63
2022/11/01 06:48:28;;;;;;;17.93;9.67;;;;;;;17.03;68.11;100201.88;5108423;28;20205;-66
2022/11/01 06:50:55;;;;;;;27.23;11.27;;;;;;;17.23;67.50;100196.56;5108262;28;20191;-66
2022/11/01 06:53:23;;;;;;;14.67;10.33;;;;;;;17.26;66.50;100187.72;5108278;28;20194;-67
2022/11/01 06:55:52;;;;;;;18.80;10.77;;;;;;;17.38;66.87;100201.09;5107779;28;20234;-67
2022/11/01 06:58:19;;;;;;;19.13;10.00;;;;;;;17.61;66.19;100202.66;5105313;28;20199;-67
2022/11/01 07:00:46;;;;;;;20.00;10.27;;;;;;;17.73;65.07;100198.66;5107690;28;20219;-65
2022/11/01 07:03:14;;;;;;;19.33;11.00;;;;;;;17.79;64.95;100201.00;5107862;27;20194;-66
2022/11/01 07:05:42;;;;;;;14.30;9.80;;;;;;;17.80;64.22;100172.97;5109144;28;20201;-66
2022/11/01 07:08:11;;;;;;;29.43;11.33;;;;;;;18.00;63.77;100196.50;5111484;28;20194;-66
2022/11/01 07:10:41;;;;;;;14.90;10.00;;;;;;;18.10;63.47;100198.59;5108692;28;21067;-66
2022/11/01 07:13:12;;;;;;;24.20;15.00;;;;;;;18.21;63.32;100199.84;5111653;27;20758;-66
2022/11/01 07:15:39;;;;;;;18.70;10.13;;;;;;;18.29;62.82;100202.94;5109188;28;20195;-66
2022/11/01 07:18:08;;;;;;;22.08;10.23;;;;;;;18.31;62.49;100195.84;5111368;28;20530;-67
2022/11/01 07:20:40;;;;;;;27.33;10.93;;;;;;;18.35;62.59;100202.66;5111295;28;20631;-67
2022/11/01 07:23:10;;;;;;;29.15;10.13;;;;;;;18.02;63.55;100199.91;5111389;28;20207;-67
2022/11/01 07:25:37;;;;;;;41.53;12.27;;;;;;;17.96;64.21;100195.78;5111115;28;20586;-64
2022/11/01 07:28:05;;;;;;;17.30;10.03;;;;;;;17.92;64.49;100193.41;5111092;28;20191;-67
2022/11/01 07:30:33;;;;;;;31.75;10.77;;;;;;;18.00;64.36;100201.75;5110951;28;20278;-67
2022/11/01 07:33:01;;;;;;;30.57;13.20;;;;;;;18.01;64.78;100198.19;5111074;28;20210;-67
2022/11/01 07:35:29;;;;;;;25.20;11.57;;;;;;;18.03;64.28;100194.59;5111053;28;20187;-67
2022/11/01 07:37:58;;;;;;;24.48;10.13;;;;;;;18.06;64.34;100202.28;5111032;28;20194;-67
2022/11/01 07:40:27;;;;;;;20.88;11.35;;;;;;;18.06;64.15;100188.31;5110887;28;20210;-67
2022/11/01 07:42:55;;;;;;;28.45;14.88;;;;;;;18.01;64.10;100188.53;5111068;28;20198;-66
2022/11/01 07:45:23;;;;;;;21.67;10.82;;;;;;;17.94;63.75;100170.53;5110877;27;20199;-63
2022/11/01 07:47:51;;;;;;;25.08;12.40;;;;;;;18.09;63.84;100185.53;5108463;28;20277;-63
2022/11/01 07:50:19;;;;;;;19.63;10.13;;;;;;;18.13;63.74;100187.09;5111045;28;20208;-66
2022/11/01 07:52:46;;;;;;;16.63;10.00;;;;;;;18.17;63.05;100193.91;5108395;28;20676;-67
2022/11/01 07:55:13;;;;;;;18.73;9.17;;;;;;;18.19;62.94;100193.81;5110738;28;20209;-63
2022/11/01 07:57:41;;;;;;;12.73;8.45;;;;;;;18.17;62.69;100203.56;5110955;28;20258;-63
2022/11/01 08:00:09;;;;;;;11.65;8.05;;;;;;;18.06;62.72;100176.03;5111153;28;20713;-63
2022/11/01 08:02:36;;;;;;;11.95;7.90;;;;;;;18.18;62.30;100192.97;5111264;28;20195;-63
2022/11/01 08:05:05;;;;;;;17.37;7.00;;;;;;;18.21;62.21;100191.97;5112026;28;20660;-68
2022/11/01 08:07:37;;;;;;;14.00;8.02;;;;;;;18.20;62.62;100195.50;5111572;28;20198;-64
2022/11/01 08:10:05;;;;;;;16.73;9.00;;;;;;;18.17;62.83;100188.66;5111606;28;20207;-63
2022/11/01 08:12:31;;;;;;;15.35;8.05;;;;;;;18.12;62.68;100188.88;5111200;28;20198;-64
2022/11/01 08:14:58;;;;;;;15.23;7.80;;;;;;;18.11;62.69;100184.53;5111187;28;20202;-64
2022/11/01 08:17:25;;;;;;;13.52;7.65;;;;;;;18.15;62.78;100174.75;5111549;28;20256;-64
2022/11/01 08:19:52;;;;;;;10.93;6.75;;;;;;;18.16;62.46;100178.22;5111169;28;20226;-64
2022/11/01 08:22:21;;;;;;;16.73;6.80;;;;;;;18.09;62.64;100164.50;5111447;28;20230;-63
2022/11/01 08:24:48;;;;;;;15.52;7.35;;;;;;;18.20;63.14;100182.38;5111030;28;20202;-64
2022/11/01 08:27:15;;;;;;;10.98;5.55;;;;;;;18.21;62.23;100173.56;5111199;28;20257;-63
2022/11/01 08:29:41;;;;;;;13.95;6.20;;;;;;;18.23;62.49;100174.34;5111288;28;20202;-64
2022/11/01 08:32:08;;;;;;;9.97;5.83;;;;;;;18.05;63.35;100176.97;5111266;28;20198;-64
2022/11/01 08:34:35;;;;;;;12.70;6.03;;;;;;;18.05;63.00;100166.47;5111058;28;20195;-67
2022/11/01 08:37:02;;;;;;;11.35;6.90;;;;;;;18.17;63.02;100167.63;5111130;28;20195;-67
2022/11/01 08:39:31;;;;;;;9.52;6.72;;;;;;;18.27;62.80;100168.03;5111085;28;20202;-64
2022/11/01 08:41:59;;;;;;;9.30;5.88;;;;;;;18.30;62.11;100165.22;5111403;28;20666;-66
2022/11/01 08:44:26;;;;;;;17.40;6.97;;;;;;;18.45;61.53;100164.47;5111242;28;20226;-68
2022/11/01 08:46:54;;;;;;;17.63;7.10;;;;;;;18.47;61.46;100167.88;5111130;28;20698;-67
2022/11/01 08:49:21;;;;;;;21.98;8.07;;;;;;;18.56;61.17;100163.91;5110909;28;20587;-65
2022/11/01 08:51:48;;;;;;;15.23;7.53;;;;;;;18.62;60.97;100158.38;5111138;28;20739;-68
2022/11/01 08:54:15;;;;;;;17.15;6.70;;;;;;;18.60;60.88;100158.47;5110908;28;20226;-64
2022/11/01 08:56:44;;;;;;;9.73;6.07;;;;;;;18.66;60.79;100165.16;5111044;28;20230;-64
2022/11/01 08:59:11;;;;;;;9.30;6.20;;;;;;;18.70;61.30;100159.69;5110866;28;20730;-64
2022/11/01 09:01:38;;;;;;;13.02;6.53;;;;;;;18.66;60.55;100152.88;5110635;28;20309;-64
2022/11/01 09:04:06;;;;;;;17.08;6.97;;;;;;;18.59;60.90;100148.03;5110983;28;20662;-65
2022/11/01 09:06:36;;;;;;;8.90;6.70;;;;;;;18.69;60.41;100150.09;5110566;28;20745;-68
2022/11/01 09:09:03;;;;;;;9.95;6.20;;;;;;;18.93;59.80;100147.97;5110966;28;20290;-68
2022/11/01 09:11:30;;;;;;;14.43;6.30;;;;;;;19.03;59.61;100150.94;5110160;28;20584;-68
2022/11/01 09:14:00;;;;;;;12.18;6.60;;;;;;;19.07;59.36;100141.97;5109866;27;20681;-66
2022/11/01 09:16:27;;;;;;;15.80;7.03;;;;;;;19.07;59.45;100147.22;5110948;28;20658;-63
2022/11/01 09:18:54;;;;;;;15.95;6.80;;;;;;;19.11;59.21;100151.38;5110364;28;20202;-63
2022/11/01 09:21:20;;;;;;;13.40;7.40;;;;;;;19.21;58.81;100145.53;5110625;28;20319;-67
2022/11/01 09:23:47;;;;;;;10.10;6.53;;;;;;;19.42;57.73;100148.75;5109004;28;20198;-67
2022/11/01 09:26:14;;;;;;;12.38;7.57;;;;;;;19.46;57.64;100137.16;5110034;28;20613;-68
2022/11/01 09:28:41;;;;;;;13.68;7.80;;;;;;;19.38;57.74;100136.72;5110133;28;20221;-67
2022/11/01 09:31:12;;;;;;;18.88;7.47;;;;;;;19.43;58.24;100132.03;5110496;28;20286;-68
2022/11/01 09:33:39;;;;;;;17.23;6.78;;;;;;;19.55;57.46;100131.38;5110199;28;20208;-63
2022/11/01 09:36:06;;;;;;;15.27;6.75;;;;;;;19.74;56.55;100125.97;5110310;28;20194;-67
2022/11/01 09:38:35;;;;;;;9.95;6.68;;;;;;;19.74;56.35;100122.47;5110032;28;20221;-63
2022/11/01 09:41:07;;;;;;;10.65;6.53;;;;;;;19.73;56.60;100104.97;5110366;28;20221;-62
2022/11/01 09:43:38;;;;;;;26.15;7.72;;;;;;;19.96;55.93;100122.09;5110191;28;20206;-65
2022/11/01 09:46:07;;;;;;;15.18;6.70;;;;;;;20.04;55.36;100118.06;5110387;28;20228;-64
2022/11/01 09:48:36;;;;;;;16.23;7.53;;;;;;;20.11;55.48;100113.28;5110199;28;20203;-62
2022/11/01 09:51:07;;;;;;;15.88;7.05;;;;;;;20.04;55.15;100094.34;5109607;28;20213;-62
2022/11/01 09:53:35;;;;;;;17.55;6.82;;;;;;;20.22;54.39;100111.72;5109632;28;20282;-63
2022/11/01 09:56:09;;;;;;;21.88;7.30;;;;;;;20.29;54.22;100097.25;5109843;28;20245;-62
2022/11/01 09:58:46;;;;;;;12.70;6.88;;;;;;;20.46;53.95;100106.81;5109375;28;20628;-62
2022/11/01 10:01:29;;;;;;;10.02;6.45;;;;;;;20.59;53.03;100093.72;5109776;28;20233;-62
2022/11/01 10:04:18;;;;;;;13.63;6.50;;;;;;;20.66;52.82;100092.41;5109905;28;20209;-60
2022/11/01 10:06:54;;;;;;;10.13;6.72;;;;;;;20.61;52.91;100097.13;5109799;28;20206;-62
2022/11/01 10:09:31;;;;;;;18.25;6.90;;;;;;;20.70;52.89;100088.63;5109863;28;20194;-62
2022/11/01 10:12:16;;;;;;;18.52;6.93;;;;;;;20.71;52.72;100090.34;5109843;28;20196;-64
2022/11/01 10:14:55;;;;;;;29.40;12.88;;;;;;;20.78;52.51;100081.09;5109806;28;20198;-61
2022/11/01 10:17:42;;;;;;;24.10;8.75;;;;;;;21.01;51.83;100080.50;5109811;28;20194;-61
2022/11/01 10:20:13;;;;;;;16.13;8.80;;;;;;;20.96;51.45;100063.28;5109815;28;20277;-62
2022/11/01 10:22:43;;;;;;;16.98;7.05;;;;;;;20.97;51.69;100070.25;5109793;28;20667;-64
2022/11/01 10:25:19;;;;;;;22.13;6.75;;;;;;;20.89;51.87;100069.88;5109554;28;20194;-65
2022/11/01 10:27:53;;;;;;;14.75;6.68;;;;;;;20.97;51.70;100071.09;5110082;28;20655;-64
2022/11/01 10:30:21;;;;;;;16.15;6.28;;;;;;;20.97;51.24;100047.34;5109646;28;20198;-62
2022/11/01 10:32:52;;;;;;;18.02;6.10;;;;;;;21.17;51.11;100067.19;5109741;28;20213;-63
2022/11/01 10:35:25;;;;;;;17.17;6.95;;;;;;;21.22;50.85;100064.31;5109748;28;20204;-64
2022/11/01 10:37:59;;;;;;;12.60;6.68;;;;;;;21.35;50.64;100059.91;5109419;28;20193;-63
2022/11/01 10:40:32;;;;;;;23.60;5.97;;;;;;;21.53;49.81;100060.53;5113229;28;20261;-64
2022/11/01 10:43:00;;;;;;;8.65;5.68;;;;;;;21.59;49.43;100052.19;5113624;28;20213;-63
2022/11/01 10:45:28;;;;;;;12.02;5.05;;;;;;;21.62;49.13;100050.22;5113361;28;20195;-64
2022/11/01 10:47:57;;;;;;;10.57;5.80;;;;;;;21.69;49.00;100051.47;5113354;28;20226;-64
2022/11/01 10:50:27;;;;;;;5.40;4.40;;;;;;;21.69;48.56;100046.19;5113698;28;20291;-64
2022/11/01 10:52:56;;;;;;;13.35;5.20;;;;;;;;;;5113384;28;20202;-64
2022/11/01 10:55:29;;;;;;;12.02;5.20;;;;;;;21.69;48.45;100035.63;5113273;27;20198;-62
2022/11/01 10:58:01;;;;;;;13.90;5.30;;;;;;;21.70;48.24;100037.31;5112671;28;20282;-64
2022/11/01 11:00:32;;;;;;;17.10;5.75;;;;;;;21.81;48.32;100028.69;5110741;28;20653;-65
2022/11/01 11:03:07;;;;;;;10.00;5.20;;;;;;;21.95;48.10;100025.13;5113022;28;20198;-65
2022/11/01 11:05:36;;;;;;;16.58;5.13;;;;;;;21.87;48.29;100012.44;5113284;28;20204;-62
2022/11/01 11:08:06;;;;;;;7.63;5.15;;;;;;;21.90;48.00;100019.28;5113114;28;20195;-64
2022/11/01 11:10:33;;;;;;;10.20;5.30;;;;;;;21.92;47.82;100009.47;5113119;28;20671;-63
2022/11/01 11:13:05;;;;;;;12.15;7.25;;;;;;;21.97;48.06;99999.44;5112977;28;20208;-63
2022/11/01 11:15:45;;;;;;;20.05;6.47;;;;;;;21.99;47.86;100006.34;5112869;28;20252;-65
2022/11/01 11:18:23;;;;;;;6.60;4.85;;;;;;;22.15;47.63;100005.28;5113129;28;20213;-65
2022/11/01 11:20:56;;;;;;;8.55;5.20;;;;;;;22.14;47.52;100000.94;5112848;28;20671;-62
2022/11/01 11:23:23;;;;;;;13.52;5.25;;;;;;;22.11;47.28;99982.66;5112699;28;20202;-65
2022/11/01 11:25:50;;;;;;;11.55;5.00;;;;;;;22.16;47.15;99991.94;5112886;28;20285;-65
2022/11/01 11:28:29;;;;;;;7.38;4.75;;;;;;;22.10;47.18;99984.47;5112808;27;20281;-65
2022/11/01 11:30:58;;;;;;;11.23;5.38;;;;;;;22.11;47.52;99986.16;5112943;28;20194;-64
2022/11/01 11:33:24;;;;;;;13.23;5.28;;;;;;;22.11;47.60;99982.66;5113164;28;20248;-65